Time;durP1;ratioP1;P1;durP2;ratioP2;P2;SDS_P1;SDS_P2;PMS_P1;PMS_P2;Temp;Humidity;BMP_temperature;BMP_pressure;BME280_temperature;BME280_humidity;BME280_pressure;Samples;Min_cycle;Max_cycle;Signal;HPM_P1;HPM_P2
2023/10/18 00:01:26;;;;;;;14.20;10.10;;;;;;;3.73;100.00;97867.19;5060713;28;20238;-79
2023/10/18 00:03:54;;;;;;;14.87;9.93;;;;;;;3.73;100.00;97864.56;5060318;28;20216;-79
2023/10/18 00:06:22;;;;;;;15.93;9.57;;;;;;;3.73;100.00;97863.75;5061735;28;20233;-79
2023/10/18 00:08:49;;;;;;;13.70;9.30;;;;;;;3.68;100.00;97863.09;5060898;28;20212;-79
2023/10/18 00:11:17;;;;;;;14.03;9.17;;;;;;;3.66;100.00;97860.56;5059138;28;20232;-79
2023/10/18 00:13:45;;;;;;;13.67;9.10;;;;;;;3.65;100.00;97851.03;5054455;28;20215;-79
2023/10/18 00:16:13;;;;;;;13.27;9.03;;;;;;;3.64;100.00;97856.31;5054501;28;20260;-79
2023/10/18 00:18:40;;;;;;;15.37;9.73;;;;;;;3.62;100.00;97858.16;5054500;28;20268;-79
2023/10/18 00:21:07;;;;;;;12.27;9.10;;;;;;;3.62;100.00;97858.16;5054617;28;20236;-79
2023/10/18 00:23:34;;;;;;;18.13;10.63;;;;;;;3.66;100.00;97850.09;5054251;28;20214;-79
2023/10/18 00:26:05;;;;;;;16.93;10.27;;;;;;;3.70;100.00;97867.34;5054051;28;20708;-79
2023/10/18 00:28:32;;;;;;;17.00;10.83;;;;;;;3.70;100.00;97862.13;5055237;28;20310;-79
2023/10/18 00:30:59;;;;;;;16.83;10.57;;;;;;;3.70;100.00;97851.66;5059458;28;20251;-79
2023/10/18 00:33:28;;;;;;;17.30;10.83;;;;;;;3.72;100.00;97852.44;5055204;28;20214;-79
2023/10/18 00:35:57;;;;;;;16.17;11.10;;;;;;;3.73;100.00;97848.91;5054904;28;20558;-80
2023/10/18 00:38:24;;;;;;;15.27;9.90;;;;;;;3.75;100.00;97839.25;5054971;28;20209;-80
2023/10/18 00:40:51;;;;;;;13.43;9.90;;;;;;;3.76;100.00;97851.38;5054769;28;20245;-80
2023/10/18 00:43:20;;;;;;;15.03;10.20;;;;;;;3.73;100.00;97835.81;5053713;28;20276;-79
2023/10/18 00:45:50;;;;;;;14.13;9.37;;;;;;;3.70;100.00;97838.59;5054418;28;20207;-80
2023/10/18 00:48:19;;;;;;;15.53;10.17;;;;;;;3.67;100.00;97825.66;5054545;28;20207;-79
2023/10/18 00:50:52;;;;;;;14.77;9.83;;;;;;;3.71;100.00;97832.44;5054520;28;20239;-79
2023/10/18 00:53:22;;;;;;;14.20;9.77;;;;;;;3.68;100.00;97827.34;5053704;28;20678;-79
2023/10/18 00:55:52;;;;;;;15.13;10.47;;;;;;;3.67;100.00;97820.44;5054203;28;20211;-79
2023/10/18 00:58:19;;;;;;;17.00;10.40;;;;;;;3.69;100.00;97818.63;5054642;28;20616;-79
2023/10/18 01:00:46;;;;;;;17.33;10.30;;;;;;;3.67;100.00;97812.59;5053193;28;20231;-80
2023/10/18 01:03:18;;;;;;;18.73;10.70;;;;;;;3.66;100.00;97813.50;5053540;28;20221;-80
2023/10/18 01:06:00;;;;;;;14.90;9.77;;;;;;;3.67;100.00;97803.94;5054142;28;20211;-79
2023/10/18 01:08:29;;;;;;;18.13;11.00;;;;;;;3.69;100.00;97796.84;5053931;28;20214;-79
2023/10/18 01:11:01;;;;;;;15.97;11.27;;;;;;;3.71;100.00;97800.22;5053544;28;20628;-79
2023/10/18 01:13:27;;;;;;;15.80;10.27;;;;;;;3.73;100.00;97793.19;5053161;28;20359;-80
2023/10/18 01:15:54;;;;;;;18.10;10.50;;;;;;;3.79;100.00;97793.72;5053387;28;20212;-79
2023/10/18 01:18:21;;;;;;;19.07;12.10;;;;;;;3.81;100.00;97786.69;5053580;28;20665;-79
2023/10/18 01:20:48;;;;;;;17.80;11.63;;;;;;;3.83;100.00;97786.56;5053554;28;20234;-79
2023/10/18 01:23:16;;;;;;;16.50;11.00;;;;;;;3.78;100.00;97781.56;5052818;28;20207;-80
2023/10/18 01:25:44;;;;;;;17.67;10.83;;;;;;;3.80;100.00;97779.72;5053339;28;20208;-79
2023/10/18 01:28:11;;;;;;;17.90;11.03;;;;;;;3.76;100.00;97783.44;5053328;28;20212;-79
2023/10/18 01:30:38;;;;;;;19.03;11.77;;;;;;;3.82;100.00;97767.44;5052935;28;20714;-79
2023/10/18 01:33:10;;;;;;;21.00;12.20;;;;;;;3.83;100.00;97760.44;5052781;28;20211;-79
2023/10/18 01:35:39;;;;;;;18.67;12.07;;;;;;;3.79;100.00;97764.97;5053046;28;20237;-79
2023/10/18 01:38:13;;;;;;;16.83;11.70;;;;;;;3.81;100.00;97771.00;5052984;28;20215;-79
2023/10/18 01:40:42;;;;;;;14.93;10.13;;;;;;;3.78;100.00;97771.13;5052822;28;20241;-79
2023/10/18 01:43:11;;;;;;;19.03;11.57;;;;;;;3.75;100.00;97775.66;5052078;28;20218;-79
2023/10/18 01:45:38;;;;;;;19.27;12.07;;;;;;;3.74;100.00;97761.72;5052801;28;20215;-79
2023/10/18 01:48:09;;;;;;;19.47;11.70;;;;;;;3.77;100.00;97756.38;5053071;28;20579;-79
2023/10/18 01:50:37;;;;;;;17.77;10.87;;;;;;;3.72;100.00;97750.50;5052816;28;20207;-79
2023/10/18 01:53:05;;;;;;;16.70;11.40;;;;;;;3.66;100.00;97752.59;5051980;28;20219;-79
2023/10/18 01:55:36;;;;;;;17.83;10.87;;;;;;;3.64;100.00;97757.88;5052724;28;20265;-79
2023/10/18 01:58:07;;;;;;;15.83;10.20;;;;;;;3.62;100.00;97749.25;5052716;28;20647;-79
2023/10/18 02:00:41;;;;;;;21.97;12.40;;;;;;;3.63;100.00;97745.75;5052674;28;20220;-79
2023/10/18 02:03:11;;;;;;;20.57;12.00;;;;;;;3.65;100.00;97738.66;5052041;28;20212;-79
2023/10/18 02:05:38;;;;;;;17.33;10.60;;;;;;;3.66;100.00;97737.75;5052370;28;20268;-79
2023/10/18 02:08:06;;;;;;;19.27;10.97;;;;;;;3.64;100.00;97742.19;5052645;28;20218;-79
2023/10/18 02:10:33;;;;;;;23.17;12.90;;;;;;;3.66;100.00;97742.97;5051606;28;20235;-79
2023/10/18 02:13:00;;;;;;;20.87;12.40;;;;;;;3.67;100.00;97736.81;5051783;28;20215;-79
2023/10/18 02:15:27;;;;;;;16.80;11.20;;;;;;;3.64;100.00;97742.19;5052171;28;20299;-79
2023/10/18 02:17:58;;;;;;;18.30;11.27;;;;;;;3.62;100.00;97738.78;5052500;28;20269;-79
2023/10/18 02:20:27;;;;;;;18.73;11.60;;;;;;;3.63;100.00;97735.28;5051685;28;20693;-79
2023/10/18 02:22:59;;;;;;;19.73;11.53;;;;;;;3.60;100.00;97735.41;5051326;28;20223;-79
2023/10/18 02:25:37;;;;;;;21.80;11.67;;;;;;;3.62;100.00;97723.13;5051943;28;20207;-79
2023/10/18 02:28:08;;;;;;;19.37;11.23;;;;;;;3.62;100.00;97728.34;5052402;28;20272;-79
2023/10/18 02:30:36;;;;;;;18.50;11.17;;;;;;;3.63;100.00;97737.91;5051917;28;20208;-79
2023/10/18 02:33:05;;;;;;;16.77;11.23;;;;;;;3.65;100.00;97738.66;5052024;28;20597;-79
2023/10/18 02:35:32;;;;;;;19.00;11.30;;;;;;;3.59;100.00;97752.03;5051946;28;20641;-79
2023/10/18 02:38:07;;;;;;;21.47;13.00;;;;;;;3.62;100.00;97749.25;5052053;28;20219;-79
2023/10/18 02:40:38;;;;;;;19.40;11.03;;;;;;;3.61;100.00;97749.34;5051839;28;20322;-79
2023/10/18 02:43:11;;;;;;;21.50;12.43;;;;;;;3.68;100.00;97742.91;5051145;28;20771;-79
2023/10/18 02:45:39;;;;;;;20.17;12.00;;;;;;;3.66;100.00;97729.91;5052099;28;20220;-79
2023/10/18 02:48:13;;;;;;;19.73;12.00;;;;;;;3.70;100.00;97715.78;5051677;28;20211;-79
2023/10/18 02:50:40;;;;;;;22.03;12.07;;;;;;;3.70;100.00;97728.84;5052145;28;20211;-79
2023/10/18 02:53:07;;;;;;;20.33;12.90;;;;;;;3.71;100.00;97727.91;5051476;28;20216;-79
2023/10/18 02:55:34;;;;;;;18.13;11.23;;;;;;;3.73;100.00;97723.44;5055728;28;20216;-79
2023/10/18 02:58:06;;;;;;;20.80;12.17;;;;;;;3.66;100.00;97719.44;5054781;28;20304;-79
2023/10/18 03:00:38;;;;;;;18.03;11.07;;;;;;;3.60;100.00;97719.75;5052373;28;20326;-80
2023/10/18 03:03:04;;;;;;;18.43;11.97;;;;;;;3.54;100.00;97714.81;5051856;28;20223;-79
2023/10/18 03:05:33;;;;;;;18.60;11.40;;;;;;;3.54;100.00;97714.81;5052893;28;20222;-79
2023/10/18 03:07:59;;;;;;;18.80;11.33;;;;;;;3.53;100.00;97712.25;5052600;28;20589;-79
2023/10/18 03:10:28;;;;;;;17.63;12.07;;;;;;;3.55;100.00;97720.91;5052414;28;20200;-79
2023/10/18 03:12:54;;;;;;;16.30;10.77;;;;;;;3.56;100.00;97723.41;5051775;28;20215;-79
2023/10/18 03:15:24;;;;;;;18.37;11.43;;;;;;;3.62;100.00;97714.44;5052315;28;20212;-79
2023/10/18 03:17:51;;;;;;;21.07;12.70;;;;;;;3.67;100.00;97715.06;5052292;28;20218;-78
2023/10/18 03:20:21;;;;;;;17.77;11.63;;;;;;;3.69;100.00;97715.84;5050188;28;20248;-80
2023/10/18 03:22:49;;;;;;;18.80;11.60;;;;;;;3.71;100.00;97707.00;5054602;28;20235;-79
2023/10/18 03:25:26;;;;;;;21.67;13.00;;;;;;;3.71;100.00;97701.78;5055922;28;20217;-79
2023/10/18 03:27:57;;;;;;;21.13;12.33;;;;;;;3.74;100.00;97700.78;5056430;28;20215;-79
2023/10/18 03:30:40;;;;;;;21.70;12.73;;;;;;;3.73;100.00;97694.69;5056321;28;20565;-79
2023/10/18 03:33:07;;;;;;;17.30;11.20;;;;;;;3.66;100.00;97693.31;5055483;28;20666;-79
2023/10/18 03:35:38;;;;;;;17.50;10.93;;;;;;;3.62;100.00;97686.53;5055656;28;20775;-79
2023/10/18 03:38:15;;;;;;;19.20;11.50;;;;;;;3.52;100.00;97693.16;5055375;28;20222;-79
2023/10/18 03:40:46;;;;;;;17.70;11.50;;;;;;;3.43;100.00;97695.34;5056020;28;20228;-79
2023/10/18 03:43:15;;;;;;;19.23;10.97;;;;;;;3.32;100.00;97688.03;5055806;28;20322;-79
2023/10/18 03:48:24;;;;;;;17.17;11.30;;;;;;;3.28;100.00;97693.47;5055131;28;20238;-79
2023/10/18 03:50:54;;;;;;;15.93;10.93;;;;;;;3.23;100.00;97693.69;5055552;28;20235;-79
2023/10/18 03:53:22;;;;;;;18.27;10.73;;;;;;;3.19;100.00;97697.34;5055030;28;20218;-79
2023/10/18 03:55:49;;;;;;;16.37;11.17;;;;;;;3.18;100.00;97690.44;5055426;28;20231;-79
2023/10/18 03:58:22;;;;;;;19.47;10.47;;;;;;;3.14;100.00;97688.91;5055618;28;20205;-79
2023/10/18 04:00:54;;;;;;;17.73;10.97;;;;;;;3.18;100.00;97685.22;5054930;28;20257;-79
2023/10/18 04:03:21;;;;;;;19.83;12.00;;;;;;;3.18;100.00;97674.78;5054698;28;20607;-79
2023/10/18 04:05:49;;;;;;;17.40;11.63;;;;;;;3.22;100.00;97663.28;5055296;28;20240;-79
2023/10/18 04:08:17;;;;;;;18.00;11.63;;;;;;;3.24;100.00;97664.03;5055257;28;20219;-79
2023/10/18 04:10:47;;;;;;;19.00;11.57;;;;;;;3.23;100.00;97667.56;5055177;28;20222;-79
2023/10/18 04:13:14;;;;;;;17.73;11.30;;;;;;;3.23;100.00;97662.34;5054482;28;20222;-79
2023/10/18 04:15:41;;;;;;;18.07;11.60;;;;;;;3.20;100.00;97662.50;5054833;28;20210;-79
2023/10/18 04:18:16;;;;;;;20.00;12.07;;;;;;;3.24;100.00;97661.44;5055191;28;20546;-79
2023/10/18 04:20:46;;;;;;;21.37;12.30;;;;;;;3.24;100.00;97650.16;5054836;28;20260;-79
2023/10/18 04:23:18;;;;;;;18.27;11.47;;;;;;;3.21;100.00;97653.75;5054422;28;20306;-79
2023/10/18 04:25:58;;;;;;;18.97;11.50;;;;;;;3.17;100.00;97652.19;5054785;28;20288;-79
2023/10/18 04:28:25;;;;;;;20.73;11.77;;;;;;;3.22;100.00;97638.91;5054947;28;20215;-79
2023/10/18 04:30:59;;;;;;;19.10;11.57;;;;;;;3.28;100.00;97638.63;5054696;28;20226;-79
2023/10/18 04:33:28;;;;;;;19.43;11.63;;;;;;;3.24;100.00;97639.72;5053452;28;20307;-79
2023/10/18 04:35:57;;;;;;;20.77;12.23;;;;;;;3.21;100.00;97627.66;5055095;28;20265;-79
2023/10/18 04:38:29;;;;;;;19.60;11.83;;;;;;;3.29;100.00;97624.63;5054551;28;20613;-79
2023/10/18 04:41:07;;;;;;;18.13;12.63;;;;;;;3.27;100.00;97614.28;5054420;28;20329;-79
2023/10/18 04:43:33;;;;;;;18.73;11.57;;;;;;;3.23;100.00;97604.91;5054053;28;20223;-79
2023/10/18 04:46:14;;;;;;;16.40;10.83;;;;;;;3.15;100.00;97612.28;5054066;28;20720;-79
2023/10/18 04:51:33;;;;;;;19.43;11.17;;;;;;;3.08;100.00;97620.47;5053867;28;20233;-79
2023/10/18 04:54:00;;;;;;;21.27;11.60;;;;;;;3.08;100.00;97616.09;5053651;28;20303;-79
2023/10/18 04:56:34;;;;;;;19.83;12.00;;;;;;;3.09;100.00;97619.53;5053934;28;20208;-79
2023/10/18 04:59:00;;;;;;;19.93;11.77;;;;;;;3.07;100.00;97619.59;5056325;28;20219;-79
2023/10/18 05:01:35;;;;;;;18.13;11.33;;;;;;;3.11;100.00;97621.16;5056647;28;20282;-79
2023/10/18 05:04:18;;;;;;;18.60;11.83;;;;;;;3.09;100.00;97612.56;5054569;28;20210;-79
2023/10/18 05:06:45;;;;;;;20.37;12.47;;;;;;;3.06;100.00;97607.47;5054664;28;20313;-79
2023/10/18 05:09:13;;;;;;;16.60;10.57;;;;;;;3.03;100.00;97607.63;5054421;28;20681;-79
2023/10/18 05:11:47;;;;;;;21.47;11.70;;;;;;;3.04;100.00;97598.88;5054381;28;20231;-79
2023/10/18 05:14:19;;;;;;;20.20;12.10;;;;;;;3.02;100.00;97598.13;5054621;28;20651;-79
2023/10/18 05:16:46;;;;;;;22.00;12.37;;;;;;;3.01;100.00;97600.78;5054435;28;20216;-79
2023/10/18 05:19:13;;;;;;;19.30;11.97;;;;;;;2.94;100.00;97602.84;5054003;28;20213;-79
2023/10/18 05:21:40;;;;;;;17.33;11.83;;;;;;;2.95;100.00;97594.09;5053628;28;20232;-79
2023/10/18 05:24:10;;;;;;;20.73;13.37;;;;;;;2.94;100.00;97587.19;5053138;28;20238;-79
2023/10/18 05:26:37;;;;;;;21.60;14.03;;;;;;;2.90;100.00;97592.63;5054008;28;20241;-79
2023/10/18 05:29:09;;;;;;;23.37;14.77;;;;;;;2.83;100.00;97593.84;5036057;28;20212;-79
2023/10/18 05:31:44;;;;;;;23.47;13.50;;;;;;;2.78;100.00;97586.22;5053378;28;20276;-79
2023/10/18 05:34:22;;;;;;;22.80;14.07;;;;;;;2.75;100.00;97602.00;5053223;28;20224;-79
2023/10/18 05:37:13;;;;;;;24.80;14.97;;;;;;;2.80;100.00;97592.22;5053982;28;20211;-79
2023/10/18 05:39:59;;;;;;;23.63;13.47;;;;;;;2.86;100.00;97594.53;5053997;28;20240;-81
2023/10/18 05:42:26;;;;;;;21.73;13.23;;;;;;;2.91;100.00;97595.16;5054439;28;20328;-81
2023/10/18 05:44:54;;;;;;;22.50;12.77;;;;;;;2.92;100.00;97589.03;5054075;28;20610;-80
2023/10/18 05:47:20;;;;;;;20.23;13.20;;;;;;;2.95;100.00;97590.66;5053490;28;20214;-81
2023/10/18 05:49:50;;;;;;;21.23;12.77;;;;;;;2.96;100.00;97593.19;5054039;28;20215;-80
2023/10/18 05:52:19;;;;;;;21.63;12.30;;;;;;;3.03;100.00;97589.38;5053324;28;20597;-81
2023/10/18 05:54:46;;;;;;;21.03;12.17;;;;;;;2.98;100.00;97599.19;5053721;28;20247;-80
2023/10/18 05:57:17;;;;;;;20.80;11.77;;;;;;;2.99;100.00;97600.03;5053545;28;20300;-80
2023/10/18 05:59:46;;;;;;;20.33;12.83;;;;;;;3.02;100.00;97605.94;5053060;28;20863;-80
2023/10/18 06:02:22;;;;;;;20.53;12.47;;;;;;;3.04;100.00;97598.03;5052162;28;20238;-80
2023/10/18 06:04:49;;;;;;;23.67;12.80;;;;;;;3.09;100.00;97589.06;5052685;28;20219;-80
2023/10/18 06:07:18;;;;;;;21.27;12.80;;;;;;;3.09;100.00;97583.84;5052912;28;20219;-80
2023/10/18 06:09:49;;;;;;;20.60;11.93;;;;;;;3.11;100.00;97582.00;5052643;28;20215;-80
2023/10/18 06:12:22;;;;;;;19.83;11.43;;;;;;;3.13;100.00;97587.97;5052438;28;20225;-80
2023/10/18 06:14:51;;;;;;;21.00;12.40;;;;;;;3.17;100.00;97586.09;5054134;28;20273;-81
2023/10/18 06:17:22;;;;;;;20.23;12.63;;;;;;;3.21;100.00;97582.41;5053766;28;20218;-81
2023/10/18 06:19:50;;;;;;;22.23;12.93;;;;;;;3.19;100.00;97582.47;5053520;28;20592;-80
2023/10/18 06:22:27;;;;;;;23.33;12.93;;;;;;;3.27;100.00;97569.03;5052455;28;20238;-80
2023/10/18 06:24:55;;;;;;;22.73;13.43;;;;;;;3.32;100.00;97569.66;5053747;28;20260;-81
2023/10/18 06:27:22;;;;;;;23.27;12.80;;;;;;;3.41;100.00;97569.19;5053771;28;20293;-81
2023/10/18 06:29:53;;;;;;;20.10;12.07;;;;;;;3.41;100.00;97564.81;5053543;28;20235;-81
2023/10/18 06:32:25;;;;;;;20.13;12.43;;;;;;;3.41;100.00;97563.97;5053137;28;20237;-78
2023/10/18 06:34:57;;;;;;;19.93;12.13;;;;;;;3.43;100.00;97565.59;5054647;28;20655;-80
2023/10/18 06:37:31;;;;;;;17.63;11.33;;;;;;;3.43;100.00;97557.75;5055786;28;20209;-81
2023/10/18 06:39:59;;;;;;;20.63;12.00;;;;;;;3.45;100.00;97553.31;5056698;28;20298;-81
2023/10/18 06:42:27;;;;;;;20.07;12.50;;;;;;;3.45;100.00;97561.16;5056190;28;20238;-81
2023/10/18 06:44:54;;;;;;;16.67;10.80;;;;;;;3.47;100.00;97561.91;5054077;28;20214;-81
2023/10/18 06:47:30;;;;;;;19.23;11.97;;;;;;;3.51;100.00;97560.84;5053177;28;20247;-81
2023/10/18 06:49:59;;;;;;;22.87;13.40;;;;;;;3.63;100.00;97555.00;5053410;28;20213;-81
2023/10/18 06:52:28;;;;;;;21.33;12.63;;;;;;;3.71;100.00;97560.66;5053343;28;20234;-81
2023/10/18 06:54:55;;;;;;;21.70;13.10;;;;;;;3.80;100.00;97549.72;5054063;28;20241;-82
2023/10/18 06:57:27;;;;;;;22.23;13.30;;;;;;;3.89;100.00;97551.03;5062024;28;20207;-84
2023/10/18 06:59:55;;;;;;;24.10;14.10;;;;;;;4.02;100.00;97537.25;5062480;28;20227;-84
2023/10/18 07:02:26;;;;;;;22.90;14.10;;;;;;;4.15;100.00;97551.34;5065974;28;20265;-84
2023/10/18 07:04:56;;;;;;;23.37;14.00;;;;;;;4.27;100.00;97548.09;5066978;28;20212;-81
2023/10/18 07:07:23;;;;;;;24.50;15.30;;;;;;;4.44;100.00;97542.81;5043979;28;20645;-79
2023/10/18 07:09:52;;;;;;;27.10;15.10;;;;;;;4.59;100.00;97541.13;5048210;28;20295;-79
2023/10/18 07:12:19;;;;;;;29.67;15.97;;;;;;;4.73;100.00;97549.03;5037633;28;20267;-80
2023/10/18 07:14:47;;;;;;;27.83;15.77;;;;;;;4.89;100.00;97540.25;5037838;28;20318;-79
2023/10/18 07:17:14;;;;;;;26.80;14.73;;;;;;;5.04;100.00;97542.03;5038319;28;20212;-79
2023/10/18 07:19:55;;;;;;;25.13;15.10;;;;;;;5.20;100.00;97540.19;5039000;28;20213;-79
2023/10/18 07:22:39;;;;;;;24.37;15.27;;;;;;;5.32;100.00;97544.75;5056045;28;20243;-79
2023/10/18 07:25:08;;;;;;;25.37;16.40;;;;;;;5.50;100.00;97527.94;5046226;28;20193;-80
2023/10/18 07:27:35;;;;;;;23.20;13.90;;;;;;;5.57;100.00;97518.78;5059404;28;20265;-80
2023/10/18 07:30:03;;;;;;;22.33;14.47;;;;;;;5.58;100.00;97507.41;5045317;28;20299;-78
2023/10/18 07:32:31;;;;;;;23.20;14.57;;;;;;;5.62;100.00;97510.69;5038642;28;20246;-80
2023/10/18 07:35:00;;;;;;;24.63;16.13;;;;;;;5.68;100.00;97494.59;5035329;28;20247;-80
2023/10/18 07:37:38;;;;;;;23.93;14.03;;;;;;;5.73;100.00;97503.84;5043354;28;20212;-80
2023/10/18 07:40:08;;;;;;;22.70;14.80;;;;;;;5.80;100.00;97499.94;5055750;28;20262;-80
2023/10/18 07:42:35;;;;;;;21.03;13.80;;;;;;;5.85;100.00;97482.16;5054642;28;20746;-80
2023/10/18 07:45:04;;;;;;;21.53;13.07;;;;;;;5.92;100.00;97478.22;5055361;28;20208;-80
2023/10/18 07:47:32;;;;;;;24.00;14.43;;;;;;;6.01;100.00;97492.56;5057198;28;20220;-79
2023/10/18 07:50:01;;;;;;;24.73;15.03;;;;;;;6.05;100.00;97484.41;5056197;28;20216;-79
2023/10/18 07:52:27;;;;;;;22.67;14.63;;;;;;;6.10;100.00;97466.59;5054979;28;20245;-79
2023/10/18 07:54:54;;;;;;;20.20;13.37;;;;;;;6.18;100.00;97468.75;5056015;28;20213;-80
2023/10/18 07:57:31;;;;;;;21.73;14.00;;;;;;;6.27;100.00;97484.78;5056786;28;20232;-80
2023/10/18 08:00:21;;;;;;;25.27;14.07;;;;;;;6.40;100.00;97475.19;5056255;28;20218;-79
2023/10/18 08:02:43;;;;;;;21.13;13.17;;;;;;;6.53;100.00;97464.78;5055754;28;20267;-79
2023/10/18 08:05:11;;;;;;;22.53;13.10;;;;;;;6.62;100.00;97464.16;5056053;28;20737;-79
2023/10/18 08:07:38;;;;;;;20.40;13.33;;;;;;;6.72;100.00;97466.09;5054300;28;20217;-80
2023/10/18 08:10:08;;;;;;;21.77;13.67;;;;;;;6.75;100.00;97454.56;5055664;28;20249;-80
2023/10/18 08:12:34;;;;;;;22.30;12.97;;;;;;;6.81;100.00;97460.28;5054693;28;20286;-79
2023/10/18 08:15:13;;;;;;;23.30;13.57;;;;;;;6.86;100.00;97447.69;5054890;28;20216;-80
2023/10/18 08:17:43;;;;;;;20.87;13.60;;;;;;;6.96;100.00;97451.38;5056366;28;20689;-78
2023/10/18 08:20:54;;;;;;;20.83;13.43;;;;;;;6.99;100.00;97459.06;5056339;28;20302;-81
2023/10/18 08:23:34;;;;;;;19.83;12.30;;;;;;;7.07;100.00;97462.03;5054678;28;20284;-79
2023/10/18 08:26:04;;;;;;;21.40;13.17;;;;;;;7.07;100.00;97467.28;5056938;28;20215;-78
2023/10/18 08:28:38;;;;;;;19.07;13.47;;;;;;;7.15;100.00;97475.50;5054291;28;20209;-78
2023/10/18 08:31:15;;;;;;;19.57;13.03;;;;;;;7.23;100.00;97470.59;5054515;28;20740;-80
2023/10/18 08:33:41;;;;;;;20.40;13.17;;;;;;;7.30;100.00;97472.69;5054967;28;20211;-80
2023/10/18 08:36:13;;;;;;;18.23;12.17;;;;;;;7.32;100.00;97465.56;5053693;28;20215;-80
2023/10/18 08:38:41;;;;;;;17.43;11.90;;;;;;;7.33;100.00;97471.66;5055131;28;20279;-78
2023/10/18 08:41:15;;;;;;;18.23;11.80;;;;;;;7.37;100.00;97473.16;5055490;28;20279;-78
2023/10/18 08:43:53;;;;;;;18.17;12.57;;;;;;;7.44;100.00;97463.91;5055415;28;20678;-78
2023/10/18 08:46:26;;;;;;;18.50;11.90;;;;;;;7.58;100.00;97463.78;5054342;28;20216;-80
2023/10/18 08:48:55;;;;;;;18.20;13.27;;;;;;;7.65;100.00;97451.94;5056603;28;20302;-78
2023/10/18 08:51:26;;;;;;;19.40;13.00;;;;;;;7.76;100.00;97452.03;5055961;28;20233;-78
2023/10/18 08:53:55;;;;;;;17.53;12.47;;;;;;;7.88;100.00;97452.03;5054339;28;20267;-79
2023/10/18 08:56:29;;;;;;;19.93;12.70;;;;;;;8.03;100.00;97461.47;5055386;28;20633;-81
2023/10/18 08:58:56;;;;;;;18.80;14.80;;;;;;;8.08;100.00;97454.13;5060036;28;20477;-80
2023/10/18 09:01:23;;;;;;;18.57;13.17;;;;;;;8.06;100.00;97455.16;5053986;28;20332;-80
2023/10/18 09:03:49;;;;;;;18.87;13.23;;;;;;;8.07;100.00;97451.56;5054953;28;20203;-81
2023/10/18 09:06:30;;;;;;;18.40;12.73;;;;;;;8.09;100.00;97444.44;5056086;28;20291;-81
2023/10/18 09:09:05;;;;;;;17.57;12.33;;;;;;;8.15;100.00;97439.56;5057006;28;20238;-81
2023/10/18 09:11:33;;;;;;;18.93;12.80;;;;;;;8.16;100.00;97441.28;5057028;28;20249;-84
2023/10/18 09:14:07;;;;;;;19.77;13.00;;;;;;;8.21;100.00;97438.34;5053251;28;20211;-80
2023/10/18 09:16:38;;;;;;;20.70;12.73;;;;;;;8.24;100.00;97438.97;5054296;28;20247;-79
2023/10/18 09:19:06;;;;;;;19.77;13.37;;;;;;;8.55;100.00;97427.06;5054190;28;20211;-79
2023/10/18 09:21:42;;;;;;;18.27;12.43;;;;;;;8.69;100.00;97427.75;5035045;28;20319;-79
2023/10/18 09:24:11;;;;;;;18.67;12.40;;;;;;;8.74;100.00;97416.88;5053194;28;20626;-78
2023/10/18 09:26:41;;;;;;;19.23;12.83;;;;;;;8.76;100.00;97420.25;5053262;28;20230;-78
2023/10/18 09:29:09;;;;;;;18.27;12.27;;;;;;;8.87;100.00;97412.41;5053294;28;20217;-78
2023/10/18 09:31:36;;;;;;;19.20;13.07;;;;;;;9.07;100.00;97409.13;5053408;28;20234;-78
2023/10/18 09:34:07;;;;;;;17.67;12.37;;;;;;;9.26;100.00;97406.81;5053055;28;20306;-78
2023/10/18 09:36:38;;;;;;;23.10;13.27;;;;;;;9.48;100.00;97401.59;5050125;28;20647;-79
2023/10/18 09:39:09;;;;;;;17.03;12.30;;;;;;;9.68;100.00;97390.34;5054039;28;20212;-79
2023/10/18 09:41:39;;;;;;;17.67;13.17;;;;;;;9.87;100.00;97386.16;5053802;28;21050;-79
2023/10/18 09:44:07;;;;;;;17.10;11.93;;;;;;;10.02;100.00;97373.53;5052779;28;20239;-79
2023/10/18 09:46:36;;;;;;;17.93;12.30;;;;;;;10.16;100.00;97373.34;5054053;28;20209;-79
2023/10/18 09:49:09;;;;;;;17.40;12.20;;;;;;;10.27;100.00;97362.78;5057041;28;20664;-79
2023/10/18 09:51:40;;;;;;;15.93;11.83;;;;;;;10.29;100.00;97356.38;5073258;28;20235;-78
2023/10/18 09:54:08;;;;;;;15.03;11.20;;;;;;;10.25;100.00;97354.09;5063127;28;20643;-79
2023/10/18 09:56:38;;;;;;;15.40;11.53;;;;;;;10.26;100.00;97369.00;5052812;28;20212;-79
2023/10/18 09:59:08;;;;;;;16.63;12.20;;;;;;;10.27;100.00;97358.31;5054275;28;20242;-78
2023/10/18 10:04:18;;;;;;;15.07;11.07;;;;;;;10.43;100.00;97350.00;5053930;28;20267;-79
2023/10/18 10:06:46;;;;;;;15.70;11.17;;;;;;;10.56;100.00;97348.03;5056492;28;20922;-79
2023/10/18 10:09:13;;;;;;;15.60;11.13;;;;;;;10.72;100.00;97343.19;5052010;28;20295;-80
2023/10/18 10:11:44;;;;;;;13.60;10.57;;;;;;;10.85;100.00;97336.75;5052384;28;20233;-80
2023/10/18 10:14:12;;;;;;;14.43;10.73;;;;;;;10.97;98.69;97329.59;5055141;28;20347;-80
2023/10/18 10:16:46;;;;;;;17.60;11.43;;;;;;;10.99;96.84;97330.31;5054544;28;20589;-82
2023/10/18 10:19:15;;;;;;;14.07;10.53;;;;;;;10.97;97.02;97324.31;5054816;28;20238;-80
2023/10/18 10:21:44;;;;;;;15.37;11.07;;;;;;;10.99;98.22;97325.03;5055008;28;20235;-78
2023/10/18 10:26:52;;;;;;;13.93;9.93;;;;;;;11.05;99.60;97325.38;5058271;28;20267;-82
2023/10/18 10:29:35;;;;;;;15.70;11.40;;;;;;;11.20;98.73;97307.38;5060200;28;20221;-81
2023/10/18 10:32:05;;;;;;;14.13;11.33;;;;;;;11.28;96.29;97295.19;5060151;28;20230;-81
2023/10/18 10:34:34;;;;;;;15.90;10.40;;;;;;;11.39;97.02;97291.59;5060834;28;20664;-80
2023/10/18 10:37:06;;;;;;;13.37;10.23;;;;;;;11.50;94.19;97295.00;5059866;28;20234;-80
2023/10/18 10:39:43;;;;;;;14.77;10.40;;;;;;;11.52;92.25;97281.66;5060364;28;20734;-80
2023/10/18 10:42:19;;;;;;;14.13;10.43;;;;;;;11.69;88.44;97270.47;5059760;28;20235;-80
2023/10/18 10:45:10;;;;;;;14.17;10.03;;;;;;;11.66;89.02;97273.38;5060505;28;20207;-80
2023/10/18 10:47:43;;;;;;;13.43;9.93;;;;;;;11.79;88.54;97268.72;5058224;28;20273;-81
2023/10/18 10:50:11;;;;;;;14.25;11.98;;;;;;;11.96;88.17;97263.59;5054537;28;20779;-84
2023/10/18 10:52:40;;;;;;;14.63;10.20;;;;;;;12.23;84.78;97239.94;5055694;28;20250;-81
2023/10/18 10:55:20;;;;;;;13.13;9.30;;;;;;;12.35;84.36;97243.31;5055431;28;20637;-83
2023/10/18 10:57:50;;;;;;;13.17;9.53;;;;;;;12.59;81.99;97230.50;5054997;28;20219;-83
2023/10/18 11:03:28;;;;;;;12.30;9.43;;;;;;;13.08;82.23;97231.13;5058682;28;20228;-82
2023/10/18 11:05:58;;;;;;;12.03;9.23;;;;;;;13.26;80.69;97217.97;5063329;28;20216;-82
2023/10/18 11:08:25;;;;;;;12.07;9.00;;;;;;;13.34;80.35;97207.47;5064021;28;20220;-82
2023/10/18 11:10:52;;;;;;;10.57;8.40;;;;;;;13.48;80.63;97202.53;5045760;28;20576;-82
2023/10/18 11:13:22;;;;;;;10.60;7.77;;;;;;;13.55;79.49;97189.50;5063281;28;20224;-82
2023/10/18 11:15:51;;;;;;;9.87;7.53;;;;;;;13.67;78.14;97201.59;5065898;28;20209;-82
2023/10/18 11:18:20;;;;;;;10.50;7.70;;;;;;;13.76;75.17;97200.72;5066565;28;20228;-82
2023/10/18 11:21:05;;;;;;;10.77;7.83;;;;;;;13.95;70.28;97174.88;5065181;28;20285;-82
2023/10/18 11:23:33;;;;;;;9.60;7.53;;;;;;;14.13;68.78;97182.88;5064178;28;20236;-82
2023/10/18 11:26:01;;;;;;;7.87;6.80;;;;;;;14.32;70.28;97166.81;5066708;28;20277;-83
2023/10/18 11:28:31;;;;;;;9.90;6.87;;;;;;;14.54;68.24;97163.69;5069805;28;20257;-81
2023/10/18 11:31:00;;;;;;;9.80;7.13;;;;;;;14.52;68.25;97163.00;5068852;28;20240;-82
2023/10/18 11:33:46;;;;;;;7.63;6.20;;;;;;;14.52;68.49;97153.19;5067960;28;20630;-82
2023/10/18 11:36:18;;;;;;;8.13;6.47;;;;;;;14.62;68.41;97147.78;5068367;28;20280;-82
2023/10/18 11:39:07;;;;;;;9.43;7.40;;;;;;;14.52;70.65;97149.69;5067781;28;20280;-83
2023/10/18 11:41:34;;;;;;;9.47;6.50;;;;;;;14.43;69.58;97142.66;5065675;28;20232;-83
2023/10/18 11:44:06;;;;;;;8.33;6.67;;;;;;;14.46;70.83;97150.31;5071584;28;20229;-81
2023/10/18 11:46:46;;;;;;;6.90;5.40;;;;;;;14.50;69.53;97133.06;5069982;28;20205;-81
2023/10/18 11:49:12;;;;;;;9.33;5.40;;;;;;;14.60;69.23;97124.00;5069640;28;20213;-81